sensor_id;sensor_type;location;lat;lon;timestamp;temperature;humidity
22827;DHT22;11580;52.562;13.418;2023-05-07T00:00:18;13.60;39.00
22827;DHT22;11580;52.562;13.418;2023-05-07T00:02:45;13.60;38.90
22827;DHT22;11580;52.562;13.418;2023-05-07T00:05:13;13.60;38.90
22827;DHT22;11580;52.562;13.418;2023-05-07T00:07:40;13.70;39.00
22827;DHT22;11580;52.562;13.418;2023-05-07T00:10:10;13.70;39.10
22827;DHT22;11580;52.562;13.418;2023-05-07T00:12:38;13.70;39.00
22827;DHT22;11580;52.562;13.418;2023-05-07T00:15:06;13.70;39.10
22827;DHT22;11580;52.562;13.418;2023-05-07T00:17:34;13.70;39.00
22827;DHT22;11580;52.562;13.418;2023-05-07T00:20:02;13.70;39.00
22827;DHT22;11580;52.562;13.418;2023-05-07T00:22:30;13.70;38.90
22827;DHT22;11580;52.562;13.418;2023-05-07T00:24:58;13.70;38.70
22827;DHT22;11580;52.562;13.418;2023-05-07T00:27:27;13.70;38.60
22827;DHT22;11580;52.562;13.418;2023-05-07T00:29:54;13.70;38.50
22827;DHT22;11580;52.562;13.418;2023-05-07T00:32:21;13.70;39.30
22827;DHT22;11580;52.562;13.418;2023-05-07T00:34:48;13.70;38.70
22827;DHT22;11580;52.562;13.418;2023-05-07T00:37:16;13.70;38.80
22827;DHT22;11580;52.562;13.418;2023-05-07T00:39:43;13.70;39.60
22827;DHT22;11580;52.562;13.418;2023-05-07T00:42:10;13.70;39.00
22827;DHT22;11580;52.562;13.418;2023-05-07T00:44:39;13.70;38.90
22827;DHT22;11580;52.562;13.418;2023-05-07T00:47:07;13.70;38.80
22827;DHT22;11580;52.562;13.418;2023-05-07T00:49:38;13.70;38.80
22827;DHT22;11580;52.562;13.418;2023-05-07T00:52:07;13.70;38.60
22827;DHT22;11580;52.562;13.418;2023-05-07T00:54:37;13.70;39.50
22827;DHT22;11580;52.562;13.418;2023-05-07T00:57:07;13.70;38.90
22827;DHT22;11580;52.562;13.418;2023-05-07T00:59:36;13.70;39.00
22827;DHT22;11580;52.562;13.418;2023-05-07T01:02:06;13.70;38.90
22827;DHT22;11580;52.562;13.418;2023-05-07T01:04:34;13.70;38.90
22827;DHT22;11580;52.562;13.418;2023-05-07T01:07:01;13.70;39.00
22827;DHT22;11580;52.562;13.418;2023-05-07T01:09:29;13.90;39.00
22827;DHT22;11580;52.562;13.418;2023-05-07T01:11:57;13.70;38.80
22827;DHT22;11580;52.562;13.418;2023-05-07T01:14:25;13.70;39.30
22827;DHT22;11580;52.562;13.418;2023-05-07T01:16:54;13.70;38.60
22827;DHT22;11580;52.562;13.418;2023-05-07T01:19:23;13.70;38.50
22827;DHT22;11580;52.562;13.418;2023-05-07T01:21:51;13.70;38.60
22827;DHT22;11580;52.562;13.418;2023-05-07T01:24:30;13.70;38.50
22827;DHT22;11580;52.562;13.418;2023-05-07T01:26:59;13.70;38.40
22827;DHT22;11580;52.562;13.418;2023-05-07T01:29:30;13.70;38.50
22827;DHT22;11580;52.562;13.418;2023-05-07T01:31:59;13.70;38.50
22827;DHT22;11580;52.562;13.418;2023-05-07T01:34:31;13.70;38.40
22827;DHT22;11580;52.562;13.418;2023-05-07T01:36:59;13.70;38.30
22827;DHT22;11580;52.562;13.418;2023-05-07T01:39:31;13.70;38.50
22827;DHT22;11580;52.562;13.418;2023-05-07T01:41:59;13.70;38.40
22827;DHT22;11580;52.562;13.418;2023-05-07T01:44:27;13.70;38.60
22827;DHT22;11580;52.562;13.418;2023-05-07T01:46:55;13.70;38.50
22827;DHT22;11580;52.562;13.418;2023-05-07T01:49:24;13.70;38.50
22827;DHT22;11580;52.562;13.418;2023-05-07T01:51:51;13.80;38.60
22827;DHT22;11580;52.562;13.418;2023-05-07T01:54:19;13.70;38.40
22827;DHT22;11580;52.562;13.418;2023-05-07T01:56:55;13.80;38.50
22827;DHT22;11580;52.562;13.418;2023-05-07T01:59:23;13.70;38.20
22827;DHT22;11580;52.562;13.418;2023-05-07T02:01:51;13.70;38.30
22827;DHT22;11580;52.562;13.418;2023-05-07T02:04:18;13.70;38.20
22827;DHT22;11580;52.562;13.418;2023-05-07T02:06:46;13.80;38.30
22827;DHT22;11580;52.562;13.418;2023-05-07T02:09:14;13.70;38.20
22827;DHT22;11580;52.562;13.418;2023-05-07T02:11:44;13.70;38.20
22827;DHT22;11580;52.562;13.418;2023-05-07T02:14:14;13.70;38.20
22827;DHT22;11580;52.562;13.418;2023-05-07T02:16:41;13.70;38.90
22827;DHT22;11580;52.562;13.418;2023-05-07T02:19:10;13.70;38.40
22827;DHT22;11580;52.562;13.418;2023-05-07T02:21:38;13.70;39.00
22827;DHT22;11580;52.562;13.418;2023-05-07T02:24:05;13.80;38.30
22827;DHT22;11580;52.562;13.418;2023-05-07T02:26:33;13.70;38.20
22827;DHT22;11580;52.562;13.418;2023-05-07T02:29:00;13.70;38.20
22827;DHT22;11580;52.562;13.418;2023-05-07T02:31:29;13.70;38.20
22827;DHT22;11580;52.562;13.418;2023-05-07T02:33:56;13.90;38.10
22827;DHT22;11580;52.562;13.418;2023-05-07T02:36:23;13.70;38.00
22827;DHT22;11580;52.562;13.418;2023-05-07T02:38:58;13.70;37.90
22827;DHT22;11580;52.562;13.418;2023-05-07T02:41:27;13.70;37.80
22827;DHT22;11580;52.562;13.418;2023-05-07T02:43:54;13.70;37.80
22827;DHT22;11580;52.562;13.418;2023-05-07T02:46:22;13.80;38.10
22827;DHT22;11580;52.562;13.418;2023-05-07T02:48:58;13.70;38.00
22827;DHT22;11580;52.562;13.418;2023-05-07T02:51:25;13.70;38.70
22827;DHT22;11580;52.562;13.418;2023-05-07T02:53:56;13.60;37.90
22827;DHT22;11580;52.562;13.418;2023-05-07T02:56:26;13.70;38.00
22827;DHT22;11580;52.562;13.418;2023-05-07T02:58:53;13.60;37.80
22827;DHT22;11580;52.562;13.418;2023-05-07T03:01:23;13.60;38.00
22827;DHT22;11580;52.562;13.418;2023-05-07T03:04:18;13.70;38.00
22827;DHT22;11580;52.562;13.418;2023-05-07T03:06:46;13.60;37.70
22827;DHT22;11580;52.562;13.418;2023-05-07T03:09:13;13.60;37.80
22827;DHT22;11580;52.562;13.418;2023-05-07T03:11:40;13.60;37.80
22827;DHT22;11580;52.562;13.418;2023-05-07T03:14:07;13.60;37.80
22827;DHT22;11580;52.562;13.418;2023-05-07T03:16:35;13.60;37.80
22827;DHT22;11580;52.562;13.418;2023-05-07T03:19:02;13.80;38.00
22827;DHT22;11580;52.562;13.418;2023-05-07T03:21:31;13.60;38.50
22827;DHT22;11580;52.562;13.418;2023-05-07T03:23:59;13.60;37.70
22827;DHT22;11580;52.562;13.418;2023-05-07T03:26:27;13.60;37.70
22827;DHT22;11580;52.562;13.418;2023-05-07T03:28:54;13.60;38.40
22827;DHT22;11580;52.562;13.418;2023-05-07T03:31:22;13.60;37.70
22827;DHT22;11580;52.562;13.418;2023-05-07T03:33:50;13.80;37.90
22827;DHT22;11580;52.562;13.418;2023-05-07T03:36:19;13.60;37.60
22827;DHT22;11580;52.562;13.418;2023-05-07T03:38:48;13.70;37.80
22827;DHT22;11580;52.562;13.418;2023-05-07T03:41:19;13.60;37.50
22827;DHT22;11580;52.562;13.418;2023-05-07T03:43:47;13.60;37.60
22827;DHT22;11580;52.562;13.418;2023-05-07T03:46:14;13.60;37.50
22827;DHT22;11580;52.562;13.418;2023-05-07T03:48:42;13.60;37.40
22827;DHT22;11580;52.562;13.418;2023-05-07T03:51:11;13.60;37.50
22827;DHT22;11580;52.562;13.418;2023-05-07T03:53:38;13.60;37.30
22827;DHT22;11580;52.562;13.418;2023-05-07T03:56:07;13.60;37.30
22827;DHT22;11580;52.562;13.418;2023-05-07T03:58:37;13.60;37.30
22827;DHT22;11580;52.562;13.418;2023-05-07T04:01:08;13.60;37.30
22827;DHT22;11580;52.562;13.418;2023-05-07T04:03:35;13.60;37.30
22827;DHT22;11580;52.562;13.418;2023-05-07T04:06:03;13.60;37.30
22827;DHT22;11580;52.562;13.418;2023-05-07T04:08:33;13.60;38.00
22827;DHT22;11580;52.562;13.418;2023-05-07T04:11:02;13.60;38.00
22827;DHT22;11580;52.562;13.418;2023-05-07T04:13:33;13.60;37.30
22827;DHT22;11580;52.562;13.418;2023-05-07T04:16:03;13.60;37.30
22827;DHT22;11580;52.562;13.418;2023-05-07T04:18:34;13.50;37.20
22827;DHT22;11580;52.562;13.418;2023-05-07T04:21:01;13.50;37.20
22827;DHT22;11580;52.562;13.418;2023-05-07T04:23:28;13.50;37.40
22827;DHT22;11580;52.562;13.418;2023-05-07T04:25:58;13.70;38.40
22827;DHT22;11580;52.562;13.418;2023-05-07T04:28:34;13.60;37.40
22827;DHT22;11580;52.562;13.418;2023-05-07T04:31:01;13.60;37.30
22827;DHT22;11580;52.562;13.418;2023-05-07T04:33:30;13.60;37.30
22827;DHT22;11580;52.562;13.418;2023-05-07T04:35:58;13.60;37.30
22827;DHT22;11580;52.562;13.418;2023-05-07T04:38:29;13.60;37.30
22827;DHT22;11580;52.562;13.418;2023-05-07T04:41:02;13.70;37.30
22827;DHT22;11580;52.562;13.418;2023-05-07T04:43:33;13.70;37.20
22827;DHT22;11580;52.562;13.418;2023-05-07T04:46:00;13.70;37.30
22827;DHT22;11580;52.562;13.418;2023-05-07T04:48:28;13.70;38.00
22827;DHT22;11580;52.562;13.418;2023-05-07T04:50:57;13.70;37.30
22827;DHT22;11580;52.562;13.418;2023-05-07T04:53:24;13.70;37.30
22827;DHT22;11580;52.562;13.418;2023-05-07T04:55:56;13.70;37.30
22827;DHT22;11580;52.562;13.418;2023-05-07T04:58:29;13.70;36.90
22827;DHT22;11580;52.562;13.418;2023-05-07T05:00:59;13.90;37.20
22827;DHT22;11580;52.562;13.418;2023-05-07T05:03:27;13.80;37.00
22827;DHT22;11580;52.562;13.418;2023-05-07T05:05:55;13.80;37.10
22827;DHT22;11580;52.562;13.418;2023-05-07T05:08:26;14.00;37.40
22827;DHT22;11580;52.562;13.418;2023-05-07T05:10:53;13.90;37.30
22827;DHT22;11580;52.562;13.418;2023-05-07T05:13:20;14.00;37.50
22827;DHT22;11580;52.562;13.418;2023-05-07T05:15:47;14.00;37.40
22827;DHT22;11580;52.562;13.418;2023-05-07T05:18:16;14.10;37.30
22827;DHT22;11580;52.562;13.418;2023-05-07T05:20:43;14.20;37.60
22827;DHT22;11580;52.562;13.418;2023-05-07T05:23:11;14.30;36.90
22827;DHT22;11580;52.562;13.418;2023-05-07T05:25:39;14.40;37.00
22827;DHT22;11580;52.562;13.418;2023-05-07T05:28:09;14.50;37.10
22827;DHT22;11580;52.562;13.418;2023-05-07T05:30:36;14.60;37.30
22827;DHT22;11580;52.562;13.418;2023-05-07T05:33:03;14.70;38.00
22827;DHT22;11580;52.562;13.418;2023-05-07T05:35:32;14.80;36.90
22827;DHT22;11580;52.562;13.418;2023-05-07T05:38:03;15.00;36.60
22827;DHT22;11580;52.562;13.418;2023-05-07T05:40:31;15.10;36.80
22827;DHT22;11580;52.562;13.418;2023-05-07T05:42:59;15.20;36.70
22827;DHT22;11580;52.562;13.418;2023-05-07T05:45:27;15.30;36.50
22827;DHT22;11580;52.562;13.418;2023-05-07T05:47:56;15.40;36.20
22827;DHT22;11580;52.562;13.418;2023-05-07T05:50:23;15.50;35.60
22827;DHT22;11580;52.562;13.418;2023-05-07T05:52:53;15.60;35.90
22827;DHT22;11580;52.562;13.418;2023-05-07T05:55:21;15.70;35.80
22827;DHT22;11580;52.562;13.418;2023-05-07T05:57:48;15.80;36.30
22827;DHT22;11580;52.562;13.418;2023-05-07T06:00:17;16.00;35.90
22827;DHT22;11580;52.562;13.418;2023-05-07T06:02:44;16.10;35.70
22827;DHT22;11580;52.562;13.418;2023-05-07T06:05:16;16.20;35.50
22827;DHT22;11580;52.562;13.418;2023-05-07T06:07:44;16.30;35.50
22827;DHT22;11580;52.562;13.418;2023-05-07T06:10:13;16.40;35.30
22827;DHT22;11580;52.562;13.418;2023-05-07T06:12:40;16.60;34.80
22827;DHT22;11580;52.562;13.418;2023-05-07T06:15:08;16.60;35.00
22827;DHT22;11580;52.562;13.418;2023-05-07T06:17:35;16.80;35.10
22827;DHT22;11580;52.562;13.418;2023-05-07T06:20:03;16.80;34.90
22827;DHT22;11580;52.562;13.418;2023-05-07T06:22:32;17.00;34.90
22827;DHT22;11580;52.562;13.418;2023-05-07T06:25:00;17.10;34.80
22827;DHT22;11580;52.562;13.418;2023-05-07T06:27:29;17.20;34.30
22827;DHT22;11580;52.562;13.418;2023-05-07T06:29:57;17.30;34.20
22827;DHT22;11580;52.562;13.418;2023-05-07T06:32:25;17.40;34.30
22827;DHT22;11580;52.562;13.418;2023-05-07T06:34:52;17.50;34.00
22827;DHT22;11580;52.562;13.418;2023-05-07T06:37:19;17.50;33.50
22827;DHT22;11580;52.562;13.418;2023-05-07T06:39:56;17.60;33.40
22827;DHT22;11580;52.562;13.418;2023-05-07T06:42:23;17.60;33.20
22827;DHT22;11580;52.562;13.418;2023-05-07T06:44:57;17.60;33.00
22827;DHT22;11580;52.562;13.418;2023-05-07T06:47:26;17.60;33.00
22827;DHT22;11580;52.562;13.418;2023-05-07T06:49:54;17.70;33.20
22827;DHT22;11580;52.562;13.418;2023-05-07T06:52:25;17.70;33.20
22827;DHT22;11580;52.562;13.418;2023-05-07T06:54:53;17.80;33.30
22827;DHT22;11580;52.562;13.418;2023-05-07T06:57:23;17.80;33.40
22827;DHT22;11580;52.562;13.418;2023-05-07T06:59:51;17.90;33.40
22827;DHT22;11580;52.562;13.418;2023-05-07T07:02:21;18.10;33.40
22827;DHT22;11580;52.562;13.418;2023-05-07T07:04:49;18.20;32.70
22827;DHT22;11580;52.562;13.418;2023-05-07T07:07:16;18.30;32.80
22827;DHT22;11580;52.562;13.418;2023-05-07T07:09:46;18.40;32.20
22827;DHT22;11580;52.562;13.418;2023-05-07T07:12:16;18.40;31.60
22827;DHT22;11580;52.562;13.418;2023-05-07T07:14:43;18.40;31.50
22827;DHT22;11580;52.562;13.418;2023-05-07T07:17:12;18.40;31.20
22827;DHT22;11580;52.562;13.418;2023-05-07T07:19:40;18.30;30.80
22827;DHT22;11580;52.562;13.418;2023-05-07T07:22:08;18.20;30.00
22827;DHT22;11580;52.562;13.418;2023-05-07T07:24:37;18.10;30.40
22827;DHT22;11580;52.562;13.418;2023-05-07T07:27:06;18.00;30.60
22827;DHT22;11580;52.562;13.418;2023-05-07T07:29:34;17.90;30.90
22827;DHT22;11580;52.562;13.418;2023-05-07T07:32:02;17.80;31.30
22827;DHT22;11580;52.562;13.418;2023-05-07T07:34:30;17.70;31.50
22827;DHT22;11580;52.562;13.418;2023-05-07T07:37:01;17.70;31.70
22827;DHT22;11580;52.562;13.418;2023-05-07T07:39:31;17.70;31.30
22827;DHT22;11580;52.562;13.418;2023-05-07T07:41:59;17.70;31.80
22827;DHT22;11580;52.562;13.418;2023-05-07T07:44:29;17.80;31.50
22827;DHT22;11580;52.562;13.418;2023-05-07T07:47:01;17.80;31.10
22827;DHT22;11580;52.562;13.418;2023-05-07T07:49:29;17.80;31.00
22827;DHT22;11580;52.562;13.418;2023-05-07T07:52:02;17.70;30.80
22827;DHT22;11580;52.562;13.418;2023-05-07T07:54:32;17.70;30.30
22827;DHT22;11580;52.562;13.418;2023-05-07T07:56:59;17.60;30.60
22827;DHT22;11580;52.562;13.418;2023-05-07T07:59:29;17.60;30.70
22827;DHT22;11580;52.562;13.418;2023-05-07T08:01:57;17.50;31.40
22827;DHT22;11580;52.562;13.418;2023-05-07T08:04:26;17.50;30.70
22827;DHT22;11580;52.562;13.418;2023-05-07T08:06:55;17.40;30.60
22827;DHT22;11580;52.562;13.418;2023-05-07T08:09:25;17.40;30.40
22827;DHT22;11580;52.562;13.418;2023-05-07T08:11:54;17.40;29.90
22827;DHT22;11580;52.562;13.418;2023-05-07T08:14:21;17.30;30.10
22827;DHT22;11580;52.562;13.418;2023-05-07T08:16:48;17.30;30.30
22827;DHT22;11580;52.562;13.418;2023-05-07T08:19:16;17.30;30.30
22827;DHT22;11580;52.562;13.418;2023-05-07T08:21:44;17.20;30.30
22827;DHT22;11580;52.562;13.418;2023-05-07T08:24:13;17.20;30.50
22827;DHT22;11580;52.562;13.418;2023-05-07T08:26:44;17.20;30.50
22827;DHT22;11580;52.562;13.418;2023-05-07T08:29:11;17.20;30.00
22827;DHT22;11580;52.562;13.418;2023-05-07T08:31:39;17.20;31.70
22827;DHT22;11580;52.562;13.418;2023-05-07T08:34:06;17.30;31.30
22827;DHT22;11580;52.562;13.418;2023-05-07T08:36:36;17.40;31.60
22827;DHT22;11580;52.562;13.418;2023-05-07T08:39:03;17.50;31.70
22827;DHT22;11580;52.562;13.418;2023-05-07T08:41:31;17.70;31.60
22827;DHT22;11580;52.562;13.418;2023-05-07T08:44:03;17.90;30.90
22827;DHT22;11580;52.562;13.418;2023-05-07T08:46:34;18.00;29.90
22827;DHT22;11580;52.562;13.418;2023-05-07T08:49:02;18.20;30.90
22827;DHT22;11580;52.562;13.418;2023-05-07T08:51:30;18.30;30.90
22827;DHT22;11580;52.562;13.418;2023-05-07T08:53:58;18.40;30.70
22827;DHT22;11580;52.562;13.418;2023-05-07T08:56:31;18.60;30.40
22827;DHT22;11580;52.562;13.418;2023-05-07T08:58:59;18.70;30.30
22827;DHT22;11580;52.562;13.418;2023-05-07T09:01:28;18.80;30.00
22827;DHT22;11580;52.562;13.418;2023-05-07T09:03:57;19.00;30.00
22827;DHT22;11580;52.562;13.418;2023-05-07T09:06:27;19.10;29.90
22827;DHT22;11580;52.562;13.418;2023-05-07T09:08:54;19.20;30.00
22827;DHT22;11580;52.562;13.418;2023-05-07T09:11:27;19.30;29.80
22827;DHT22;11580;52.562;13.418;2023-05-07T09:13:58;19.40;29.90
22827;DHT22;11580;52.562;13.418;2023-05-07T09:16:29;19.50;29.50
22827;DHT22;11580;52.562;13.418;2023-05-07T09:18:59;19.60;28.90
22827;DHT22;11580;52.562;13.418;2023-05-07T09:21:27;19.70;28.90
22827;DHT22;11580;52.562;13.418;2023-05-07T09:23:57;19.80;28.80
22827;DHT22;11580;52.562;13.418;2023-05-07T09:26:32;19.90;28.60
22827;DHT22;11580;52.562;13.418;2023-05-07T09:29:01;19.90;28.60
22827;DHT22;11580;52.562;13.418;2023-05-07T09:31:30;19.90;28.60
22827;DHT22;11580;52.562;13.418;2023-05-07T09:33:57;20.00;28.20
22827;DHT22;11580;52.562;13.418;2023-05-07T09:36:28;20.10;28.40
22827;DHT22;11580;52.562;13.418;2023-05-07T09:38:59;20.20;28.40
22827;DHT22;11580;52.562;13.418;2023-05-07T09:41:30;20.30;27.60
22827;DHT22;11580;52.562;13.418;2023-05-07T09:44:09;20.40;27.90
22827;DHT22;11580;52.562;13.418;2023-05-07T09:46:44;20.60;28.70
22827;DHT22;11580;52.562;13.418;2023-05-07T09:49:22;20.70;27.90
22827;DHT22;11580;52.562;13.418;2023-05-07T09:51:58;20.90;28.00
22827;DHT22;11580;52.562;13.418;2023-05-07T09:54:29;21.00;27.60
22827;DHT22;11580;52.562;13.418;2023-05-07T09:56:58;21.10;27.70
22827;DHT22;11580;52.562;13.418;2023-05-07T09:59:30;21.20;27.50
22827;DHT22;11580;52.562;13.418;2023-05-07T10:02:03;21.30;27.10
22827;DHT22;11580;52.562;13.418;2023-05-07T10:04:37;21.40;26.70
22827;DHT22;11580;52.562;13.418;2023-05-07T10:07:07;21.30;27.10
22827;DHT22;11580;52.562;13.418;2023-05-07T10:09:36;21.40;27.10
22827;DHT22;11580;52.562;13.418;2023-05-07T10:12:07;21.40;27.10
22827;DHT22;11580;52.562;13.418;2023-05-07T10:14:35;21.40;26.90
22827;DHT22;11580;52.562;13.418;2023-05-07T10:17:06;21.50;26.90
22827;DHT22;11580;52.562;13.418;2023-05-07T10:19:35;21.50;26.40
22827;DHT22;11580;52.562;13.418;2023-05-07T10:22:06;21.60;26.50
22827;DHT22;11580;52.562;13.418;2023-05-07T10:24:39;21.60;26.40
22827;DHT22;11580;52.562;13.418;2023-05-07T10:27:13;21.70;26.60
22827;DHT22;11580;52.562;13.418;2023-05-07T10:29:53;21.80;27.10
22827;DHT22;11580;52.562;13.418;2023-05-07T10:32:37;21.90;25.90
22827;DHT22;11580;52.562;13.418;2023-05-07T10:35:14;22.10;25.60
22827;DHT22;11580;52.562;13.418;2023-05-07T10:37:48;22.20;26.20
22827;DHT22;11580;52.562;13.418;2023-05-07T10:40:16;22.30;26.30
22827;DHT22;11580;52.562;13.418;2023-05-07T10:42:56;22.40;26.40
22827;DHT22;11580;52.562;13.418;2023-05-07T10:45:26;22.50;24.50
22827;DHT22;11580;52.562;13.418;2023-05-07T10:48:11;22.60;26.50
22827;DHT22;11580;52.562;13.418;2023-05-07T10:50:42;22.70;24.80
22827;DHT22;11580;52.562;13.418;2023-05-07T10:53:24;22.90;26.00
22827;DHT22;11580;52.562;13.418;2023-05-07T10:56:26;23.00;24.20
22827;DHT22;11580;52.562;13.418;2023-05-07T10:59:30;23.10;24.70
22827;DHT22;11580;52.562;13.418;2023-05-07T11:02:15;23.10;23.80
22827;DHT22;11580;52.562;13.418;2023-05-07T11:05:19;23.10;25.20
22827;DHT22;11580;52.562;13.418;2023-05-07T11:07:54;23.00;23.50
22827;DHT22;11580;52.562;13.418;2023-05-07T11:10:47;22.90;24.30
22827;DHT22;11580;52.562;13.418;2023-05-07T11:13:42;22.80;23.90
22827;DHT22;11580;52.562;13.418;2023-05-07T11:16:19;22.70;23.30
22827;DHT22;11580;52.562;13.418;2023-05-07T11:18:55;22.70;24.60
22827;DHT22;11580;52.562;13.418;2023-05-07T11:21:34;22.60;24.50
22827;DHT22;11580;52.562;13.418;2023-05-07T11:24:42;22.50;23.10
22827;DHT22;11580;52.562;13.418;2023-05-07T11:27:12;22.50;24.50
22827;DHT22;11580;52.562;13.418;2023-05-07T11:29:39;22.40;25.20
22827;DHT22;11580;52.562;13.418;2023-05-07T11:32:14;22.40;25.40
22827;DHT22;11580;52.562;13.418;2023-05-07T11:34:51;22.30;24.80
22827;DHT22;11580;52.562;13.418;2023-05-07T11:37:21;22.30;24.10
22827;DHT22;11580;52.562;13.418;2023-05-07T11:42:32;22.30;22.60
22827;DHT22;11580;52.562;13.418;2023-05-07T11:45:00;22.30;23.90
22827;DHT22;11580;52.562;13.418;2023-05-07T11:47:30;22.30;23.80
22827;DHT22;11580;52.562;13.418;2023-05-07T11:50:03;22.20;23.80
22827;DHT22;11580;52.562;13.418;2023-05-07T11:52:33;22.10;23.10
22827;DHT22;11580;52.562;13.418;2023-05-07T11:55:01;22.10;23.70
22827;DHT22;11580;52.562;13.418;2023-05-07T11:57:30;22.10;23.80
22827;DHT22;11580;52.562;13.418;2023-05-07T12:00:00;22.00;23.70
22827;DHT22;11580;52.562;13.418;2023-05-07T12:02:38;22.00;23.70
22827;DHT22;11580;52.562;13.418;2023-05-07T12:05:06;21.90;23.80
22827;DHT22;11580;52.562;13.418;2023-05-07T12:07:34;21.90;23.90
22827;DHT22;11580;52.562;13.418;2023-05-07T12:10:04;21.90;23.90
22827;DHT22;11580;52.562;13.418;2023-05-07T12:12:38;21.90;23.70
22827;DHT22;11580;52.562;13.418;2023-05-07T12:15:06;21.70;22.90
22827;DHT22;11580;52.562;13.418;2023-05-07T12:17:35;21.80;23.70
22827;DHT22;11580;52.562;13.418;2023-05-07T12:20:03;21.80;23.70
22827;DHT22;11580;52.562;13.418;2023-05-07T12:22:31;21.80;23.70
22827;DHT22;11580;52.562;13.418;2023-05-07T12:25:00;21.70;23.60
22827;DHT22;11580;52.562;13.418;2023-05-07T12:27:28;21.70;23.00
22827;DHT22;11580;52.562;13.418;2023-05-07T12:29:57;21.60;23.50
22827;DHT22;11580;52.562;13.418;2023-05-07T12:32:25;21.50;23.20
22827;DHT22;11580;52.562;13.418;2023-05-07T12:34:52;21.40;23.50
22827;DHT22;11580;52.562;13.418;2023-05-07T12:37:23;21.40;23.60
22827;DHT22;11580;52.562;13.418;2023-05-07T12:40:05;21.30;23.70
22827;DHT22;11580;52.562;13.418;2023-05-07T12:42:35;21.30;22.90
22827;DHT22;11580;52.562;13.418;2023-05-07T12:45:08;21.30;24.20
22827;DHT22;11580;52.562;13.418;2023-05-07T12:47:36;21.30;23.20
22827;DHT22;11580;52.562;13.418;2023-05-07T12:50:05;21.40;24.30
22827;DHT22;11580;52.562;13.418;2023-05-07T12:52:33;21.50;23.40
22827;DHT22;11580;52.562;13.418;2023-05-07T12:55:06;21.50;23.60
22827;DHT22;11580;52.562;13.418;2023-05-07T12:57:38;21.50;22.50
22827;DHT22;11580;52.562;13.418;2023-05-07T13:00:07;21.50;22.60
22827;DHT22;11580;52.562;13.418;2023-05-07T13:02:38;21.50;23.30
22827;DHT22;11580;52.562;13.418;2023-05-07T13:05:07;21.50;23.20
22827;DHT22;11580;52.562;13.418;2023-05-07T13:07:35;21.50;23.50
22827;DHT22;11580;52.562;13.418;2023-05-07T13:10:02;21.50;23.40
22827;DHT22;11580;52.562;13.418;2023-05-07T13:12:32;21.60;23.60
22827;DHT22;11580;52.562;13.418;2023-05-07T13:14:59;21.60;23.10
22827;DHT22;11580;52.562;13.418;2023-05-07T13:17:26;21.60;24.00
22827;DHT22;11580;52.562;13.418;2023-05-07T13:19:53;21.60;23.30
22827;DHT22;11580;52.562;13.418;2023-05-07T13:22:20;21.60;23.50
22827;DHT22;11580;52.562;13.418;2023-05-07T13:24:48;21.70;23.70
22827;DHT22;11580;52.562;13.418;2023-05-07T13:27:16;21.70;23.60
22827;DHT22;11580;52.562;13.418;2023-05-07T13:29:46;21.80;23.40
22827;DHT22;11580;52.562;13.418;2023-05-07T13:32:13;21.80;22.90
22827;DHT22;11580;52.562;13.418;2023-05-07T13:34:40;21.90;23.30
22827;DHT22;11580;52.562;13.418;2023-05-07T13:37:07;22.00;23.50
22827;DHT22;11580;52.562;13.418;2023-05-07T13:39:34;22.10;24.00
22827;DHT22;11580;52.562;13.418;2023-05-07T13:42:02;22.20;23.50
22827;DHT22;11580;52.562;13.418;2023-05-07T13:44:29;22.30;23.50
22827;DHT22;11580;52.562;13.418;2023-05-07T13:46:57;22.40;23.00
22827;DHT22;11580;52.562;13.418;2023-05-07T13:49:26;22.40;22.30
22827;DHT22;11580;52.562;13.418;2023-05-07T13:51:53;22.50;22.60
22827;DHT22;11580;52.562;13.418;2023-05-07T13:54:20;22.40;22.50
22827;DHT22;11580;52.562;13.418;2023-05-07T13:56:47;22.40;22.50
22827;DHT22;11580;52.562;13.418;2023-05-07T13:59:16;22.40;22.40
22827;DHT22;11580;52.562;13.418;2023-05-07T14:01:43;22.40;22.40
22827;DHT22;11580;52.562;13.418;2023-05-07T14:04:12;22.30;23.10
22827;DHT22;11580;52.562;13.418;2023-05-07T14:06:39;22.40;21.90
22827;DHT22;11580;52.562;13.418;2023-05-07T14:09:06;22.40;22.20
22827;DHT22;11580;52.562;13.418;2023-05-07T14:11:33;22.30;22.00
22827;DHT22;11580;52.562;13.418;2023-05-07T14:14:00;22.20;22.10
22827;DHT22;11580;52.562;13.418;2023-05-07T14:16:27;22.10;22.10
22827;DHT22;11580;52.562;13.418;2023-05-07T14:18:55;22.10;22.40
22827;DHT22;11580;52.562;13.418;2023-05-07T14:21:23;22.00;22.40
22827;DHT22;11580;52.562;13.418;2023-05-07T14:23:50;22.00;22.20
22827;DHT22;11580;52.562;13.418;2023-05-07T14:26:18;22.10;22.40
22827;DHT22;11580;52.562;13.418;2023-05-07T14:28:46;22.10;22.50
22827;DHT22;11580;52.562;13.418;2023-05-07T14:31:13;22.20;22.60
22827;DHT22;11580;52.562;13.418;2023-05-07T14:33:40;22.20;22.80
22827;DHT22;11580;52.562;13.418;2023-05-07T14:36:08;22.20;22.00
22827;DHT22;11580;52.562;13.418;2023-05-07T14:38:36;22.20;21.80
22827;DHT22;11580;52.562;13.418;2023-05-07T14:41:03;22.10;21.60
22827;DHT22;11580;52.562;13.418;2023-05-07T14:43:31;22.10;21.90
22827;DHT22;11580;52.562;13.418;2023-05-07T14:45:58;22.00;22.10
22827;DHT22;11580;52.562;13.418;2023-05-07T14:48:25;21.90;22.10
22827;DHT22;11580;52.562;13.418;2023-05-07T14:50:52;21.80;22.10
22827;DHT22;11580;52.562;13.418;2023-05-07T14:53:19;21.80;22.10
22827;DHT22;11580;52.562;13.418;2023-05-07T14:55:48;21.80;22.10
22827;DHT22;11580;52.562;13.418;2023-05-07T14:58:16;21.70;21.90
22827;DHT22;11580;52.562;13.418;2023-05-07T15:00:43;21.60;22.10
22827;DHT22;11580;52.562;13.418;2023-05-07T15:03:10;21.60;21.90
22827;DHT22;11580;52.562;13.418;2023-05-07T15:05:41;21.50;22.10
22827;DHT22;11580;52.562;13.418;2023-05-07T15:08:08;21.40;22.20
22827;DHT22;11580;52.562;13.418;2023-05-07T15:10:36;21.40;22.50
22827;DHT22;11580;52.562;13.418;2023-05-07T15:13:08;21.40;22.60
22827;DHT22;11580;52.562;13.418;2023-05-07T15:15:36;21.40;22.30
22827;DHT22;11580;52.562;13.418;2023-05-07T15:18:03;21.40;22.70
22827;DHT22;11580;52.562;13.418;2023-05-07T15:20:31;21.40;22.70
22827;DHT22;11580;52.562;13.418;2023-05-07T15:22:58;21.50;22.80
22827;DHT22;11580;52.562;13.418;2023-05-07T15:25:25;21.50;22.70
22827;DHT22;11580;52.562;13.418;2023-05-07T15:27:53;21.60;22.50
22827;DHT22;11580;52.562;13.418;2023-05-07T15:30:21;21.60;22.50
22827;DHT22;11580;52.562;13.418;2023-05-07T15:32:48;21.70;22.30